sensor_id;sensor_type;location;lat;lon;timestamp;pressure;altitude;pressure_sealevel;temperature;humidity
8569;BME280;4322;51.104;-4.162;2022-09-24T00:01:49;102795.78;;;14.03;100.00
8569;BME280;4322;51.104;-4.162;2022-09-24T00:04:18;102798.47;;;14.01;100.00
8569;BME280;4322;51.104;-4.162;2022-09-24T00:06:47;102796.81;;;13.99;100.00
8569;BME280;4322;51.104;-4.162;2022-09-24T00:09:16;102798.63;;;13.97;100.00
8569;BME280;4322;51.104;-4.162;2022-09-24T00:11:44;102796.94;;;13.94;100.00
8569;BME280;4322;51.104;-4.162;2022-09-24T00:14:12;102801.34;;;13.94;100.00
8569;BME280;4322;51.104;-4.162;2022-09-24T00:16:41;102791.81;;;13.91;100.00
8569;BME280;4322;51.104;-4.162;2022-09-24T00:19:11;102793.66;;;13.88;100.00
8569;BME280;4322;51.104;-4.162;2022-09-24T00:21:40;102799.78;;;13.87;100.00
8569;BME280;4322;51.104;-4.162;2022-09-24T00:24:11;102796.38;;;13.85;100.00
8569;BME280;4322;51.104;-4.162;2022-09-24T00:27:00;102795.56;;;13.83;100.00
8569;BME280;4322;51.104;-4.162;2022-09-24T00:29:29;102800.84;;;13.81;100.00
8569;BME280;4322;51.104;-4.162;2022-09-24T00:32:00;102804.47;;;13.77;100.00
8569;BME280;4322;51.104;-4.162;2022-09-24T00:34:30;102799.31;;;13.74;100.00
8569;BME280;4322;51.104;-4.162;2022-09-24T00:36:58;102804.63;;;13.71;100.00
8569;BME280;4322;51.104;-4.162;2022-09-24T00:39:26;102801.22;;;13.69;100.00
8569;BME280;4322;51.104;-4.162;2022-09-24T00:41:54;102805.63;;;13.67;100.00
8569;BME280;4322;51.104;-4.162;2022-09-24T00:44:47;102806.53;;;13.66;100.00
8569;BME280;4322;51.104;-4.162;2022-09-24T00:47:23;102804.00;;;13.63;100.00
8569;BME280;4322;51.104;-4.162;2022-09-24T00:50:00;102804.91;;;13.62;100.00
8569;BME280;4322;51.104;-4.162;2022-09-24T00:52:32;102808.44;;;13.61;100.00
8569;BME280;4322;51.104;-4.162;2022-09-24T00:55:00;102798.00;;;13.59;100.00
8569;BME280;4322;51.104;-4.162;2022-09-24T00:57:28;102804.16;;;13.58;100.00
8569;BME280;4322;51.104;-4.162;2022-09-24T00:59:58;102806.78;;;13.57;100.00
8569;BME280;4322;51.104;-4.162;2022-09-24T01:02:26;102810.34;;;13.56;100.00
8569;BME280;4322;51.104;-4.162;2022-09-24T01:04:56;102819.09;;;13.55;100.00
8569;BME280;4322;51.104;-4.162;2022-09-24T01:07:24;102818.22;;;13.54;100.00
8569;BME280;4322;51.104;-4.162;2022-09-24T01:09:52;102822.59;;;13.54;100.00
8569;BME280;4322;51.104;-4.162;2022-09-24T01:12:25;102822.59;;;13.54;100.00
8569;BME280;4322;51.104;-4.162;2022-09-24T01:15:09;102819.13;;;13.53;100.00
8569;BME280;4322;51.104;-4.162;2022-09-24T01:17:46;102824.41;;;13.52;100.00
8569;BME280;4322;51.104;-4.162;2022-09-24T01:20:39;102822.66;;;13.52;100.00
8569;BME280;4322;51.104;-4.162;2022-09-24T01:23:24;102826.22;;;13.50;100.00
8569;BME280;4322;51.104;-4.162;2022-09-24T01:26:06;102823.59;;;13.50;100.00
8569;BME280;4322;51.104;-4.162;2022-09-24T01:28:43;102823.59;;;13.50;100.00
8569;BME280;4322;51.104;-4.162;2022-09-24T01:31:23;102827.03;;;13.52;100.00
8569;BME280;4322;51.104;-4.162;2022-09-24T01:33:55;102830.50;;;13.52;100.00
8569;BME280;4322;51.104;-4.162;2022-09-24T01:36:25;102834.00;;;13.53;100.00
8569;BME280;4322;51.104;-4.162;2022-09-24T01:38:56;102826.97;;;13.53;100.00
8569;BME280;4322;51.104;-4.162;2022-09-24T01:41:24;102826.06;;;13.56;100.00
8569;BME280;4322;51.104;-4.162;2022-09-24T01:43:53;102825.09;;;13.58;100.00
8569;BME280;4322;51.104;-4.162;2022-09-24T01:46:22;102825.84;;;13.62;100.00
8569;BME280;4322;51.104;-4.162;2022-09-24T01:48:51;102828.38;;;13.66;100.00
8569;BME280;4322;51.104;-4.162;2022-09-24T01:51:22;102829.13;;;13.70;100.00
8569;BME280;4322;51.104;-4.162;2022-09-24T01:53:56;102822.91;;;13.74;100.00
8569;BME280;4322;51.104;-4.162;2022-09-24T01:56:31;102827.13;;;13.78;100.00
8569;BME280;4322;51.104;-4.162;2022-09-24T01:59:04;102820.09;;;13.80;100.00
8569;BME280;4322;51.104;-4.162;2022-09-24T02:01:38;102820.00;;;13.83;100.00
8569;BME280;4322;51.104;-4.162;2022-09-24T02:04:12;102826.00;;;13.87;100.00
8569;BME280;4322;51.104;-4.162;2022-09-24T02:06:45;102819.81;;;13.89;100.00
8569;BME280;4322;51.104;-4.162;2022-09-24T02:09:30;102825.88;;;13.91;100.00
8569;BME280;4322;51.104;-4.162;2022-09-24T02:12:02;102821.44;;;13.93;100.00
8569;BME280;4322;51.104;-4.162;2022-09-24T02:14:36;102824.00;;;13.95;100.00
8569;BME280;4322;51.104;-4.162;2022-09-24T02:17:08;102831.84;;;13.96;100.00
8569;BME280;4322;51.104;-4.162;2022-09-24T02:19:39;102834.41;;;13.98;100.00
8569;BME280;4322;51.104;-4.162;2022-09-24T02:22:09;102830.91;;;13.99;100.00
8569;BME280;4322;51.104;-4.162;2022-09-24T02:24:44;102837.81;;;14.01;100.00
8569;BME280;4322;51.104;-4.162;2022-09-24T02:27:13;102836.03;;;14.02;100.00
8569;BME280;4322;51.104;-4.162;2022-09-24T02:29:41;102840.38;;;14.03;100.00
8569;BME280;4322;51.104;-4.162;2022-09-24T02:32:14;102840.34;;;14.04;100.00
8569;BME280;4322;51.104;-4.162;2022-09-24T02:34:46;102838.53;;;14.06;100.00
8569;BME280;4322;51.104;-4.162;2022-09-24T02:37:15;102841.94;;;14.08;100.00
8569;BME280;4322;51.104;-4.162;2022-09-24T02:39:43;102841.84;;;14.11;100.00
8569;BME280;4322;51.104;-4.162;2022-09-24T02:42:12;102841.84;;;14.11;100.00
8569;BME280;4322;51.104;-4.162;2022-09-24T02:44:41;102840.03;;;14.13;100.00
8569;BME280;4322;51.104;-4.162;2022-09-24T02:47:10;102841.75;;;14.14;100.00
8569;BME280;4322;51.104;-4.162;2022-09-24T02:49:38;102836.53;;;14.14;100.00
8569;BME280;4322;51.104;-4.162;2022-09-24T02:52:06;102846.06;;;14.17;100.00
8569;BME280;4322;51.104;-4.162;2022-09-24T02:54:35;102846.91;;;14.17;100.00
8569;BME280;4322;51.104;-4.162;2022-09-24T02:57:04;102852.16;;;14.17;100.00
8569;BME280;4322;51.104;-4.162;2022-09-24T02:59:32;102849.47;;;14.19;100.00
8569;BME280;4322;51.104;-4.162;2022-09-24T03:02:00;102855.59;;;14.19;100.00
8569;BME280;4322;51.104;-4.162;2022-09-24T03:04:29;102862.56;;;14.20;100.00
8569;BME280;4322;51.104;-4.162;2022-09-24T03:06:57;102856.44;;;14.20;100.00
8569;BME280;4322;51.104;-4.162;2022-09-24T03:09:25;102859.06;;;14.20;100.00
8569;BME280;4322;51.104;-4.162;2022-09-24T03:11:53;102864.38;;;14.18;100.00
8569;BME280;4322;51.104;-4.162;2022-09-24T03:14:26;102868.75;;;14.18;100.00
8569;BME280;4322;51.104;-4.162;2022-09-24T03:16:54;102863.56;;;14.16;100.00
8569;BME280;4322;51.104;-4.162;2022-09-24T03:19:22;102876.66;;;14.16;100.00
8569;BME280;4322;51.104;-4.162;2022-09-24T03:21:51;102875.84;;;14.14;100.00
8569;BME280;4322;51.104;-4.162;2022-09-24T03:24:19;102876.75;;;14.13;100.00
8569;BME280;4322;51.104;-4.162;2022-09-24T03:26:47;102878.56;;;14.11;100.00
8569;BME280;4322;51.104;-4.162;2022-09-24T03:29:15;102885.63;;;14.09;100.00
8569;BME280;4322;51.104;-4.162;2022-09-24T03:32:03;102883.97;;;14.07;100.00
8569;BME280;4322;51.104;-4.162;2022-09-24T03:34:30;102889.22;;;14.05;100.00
8569;BME280;4322;51.104;-4.162;2022-09-24T03:36:59;102893.66;;;14.05;100.00
8569;BME280;4322;51.104;-4.162;2022-09-24T03:39:27;102888.44;;;14.03;100.00
8569;BME280;4322;51.104;-4.162;2022-09-24T03:41:55;102898.06;;;14.03;100.00
8569;BME280;4322;51.104;-4.162;2022-09-24T03:44:23;102904.16;;;14.03;100.00
8569;BME280;4322;51.104;-4.162;2022-09-24T03:46:51;102905.03;;;14.02;100.00
8569;BME280;4322;51.104;-4.162;2022-09-24T03:49:19;102901.53;;;14.03;100.00
8569;BME280;4322;51.104;-4.162;2022-09-24T03:51:48;102908.50;;;14.04;100.00
8569;BME280;4322;51.104;-4.162;2022-09-24T03:54:18;102908.44;;;14.06;100.00
8569;BME280;4322;51.104;-4.162;2022-09-24T03:56:46;102911.94;;;14.06;100.00
8569;BME280;4322;51.104;-4.162;2022-09-24T03:59:14;102910.22;;;14.05;100.00
8569;BME280;4322;51.104;-4.162;2022-09-24T04:01:42;102912.88;;;14.04;100.00
8569;BME280;4322;51.104;-4.162;2022-09-24T04:04:10;102906.84;;;14.02;100.00
8569;BME280;4322;51.104;-4.162;2022-09-24T04:06:39;102899.91;;;13.99;100.00
8569;BME280;4322;51.104;-4.162;2022-09-24T04:09:07;102906.88;;;14.00;100.00
8569;BME280;4322;51.104;-4.162;2022-09-24T04:11:37;102904.25;;;14.00;100.00
8569;BME280;4322;51.104;-4.162;2022-09-24T04:14:05;102909.47;;;14.00;100.00
8569;BME280;4322;51.104;-4.162;2022-09-24T04:16:33;102905.97;;;14.01;100.00
8569;BME280;4322;51.104;-4.162;2022-09-24T04:19:01;102898.09;;;14.01;100.00
8569;BME280;4322;51.104;-4.162;2022-09-24T04:21:29;102897.31;;;13.99;100.00
8569;BME280;4322;51.104;-4.162;2022-09-24T04:23:57;102889.53;;;13.96;100.00
8569;BME280;4322;51.104;-4.162;2022-09-24T04:26:25;102902.63;;;13.96;100.00
8569;BME280;4322;51.104;-4.162;2022-09-24T04:28:54;102897.47;;;13.93;100.00
8569;BME280;4322;51.104;-4.162;2022-09-24T04:31:25;102897.47;;;13.93;100.00
8569;BME280;4322;51.104;-4.162;2022-09-24T04:33:53;102893.13;;;13.92;100.00
8569;BME280;4322;51.104;-4.162;2022-09-24T04:36:21;102891.41;;;13.91;100.00
8569;BME280;4322;51.104;-4.162;2022-09-24T04:38:49;102894.03;;;13.91;100.00
8569;BME280;4322;51.104;-4.162;2022-09-24T04:41:17;102884.44;;;13.90;100.00
8569;BME280;4322;51.104;-4.162;2022-09-24T04:43:45;102888.81;;;13.90;100.00
8569;BME280;4322;51.104;-4.162;2022-09-24T04:46:14;102881.88;;;13.89;100.00
8569;BME280;4322;51.104;-4.162;2022-09-24T04:48:44;102878.41;;;13.88;100.00
8569;BME280;4322;51.104;-4.162;2022-09-24T04:51:12;102883.72;;;13.85;100.00
8569;BME280;4322;51.104;-4.162;2022-09-24T04:53:42;102893.50;;;13.80;100.00
8569;BME280;4322;51.104;-4.162;2022-09-24T04:56:11;102891.84;;;13.76;100.00
8569;BME280;4322;51.104;-4.162;2022-09-24T04:58:39;102903.34;;;13.72;100.00
8569;BME280;4322;51.104;-4.162;2022-09-24T05:01:08;102913.84;;;13.70;100.00
8569;BME280;4322;51.104;-4.162;2022-09-24T05:03:37;102921.69;;;13.72;100.00
8569;BME280;4322;51.104;-4.162;2022-09-24T05:06:05;102919.94;;;13.71;100.00
8569;BME280;4322;51.104;-4.162;2022-09-24T05:08:33;102930.44;;;13.71;100.00
8569;BME280;4322;51.104;-4.162;2022-09-24T05:11:01;102933.09;;;13.69;100.00
8569;BME280;4322;51.104;-4.162;2022-09-24T05:13:29;102947.97;;;13.69;100.00
8569;BME280;4322;51.104;-4.162;2022-09-24T05:15:57;102942.72;;;13.69;100.00
8569;BME280;4322;51.104;-4.162;2022-09-24T05:18:26;102947.97;;;13.69;100.00
8569;BME280;4322;51.104;-4.162;2022-09-24T05:20:56;102955.81;;;13.69;100.00
8569;BME280;4322;51.104;-4.162;2022-09-24T05:23:24;102958.44;;;13.69;100.00
8569;BME280;4322;51.104;-4.162;2022-09-24T05:25:52;102965.38;;;13.70;100.00
8569;BME280;4322;51.104;-4.162;2022-09-24T05:28:37;102961.94;;;13.69;100.00
8569;BME280;4322;51.104;-4.162;2022-09-24T05:31:06;102968.06;;;13.68;100.00
8569;BME280;4322;51.104;-4.162;2022-09-24T05:33:34;102971.53;;;13.69;100.00
8569;BME280;4322;51.104;-4.162;2022-09-24T05:36:05;102974.16;;;13.69;100.00
8569;BME280;4322;51.104;-4.162;2022-09-24T05:38:33;102983.72;;;13.71;100.00
8569;BME280;4322;51.104;-4.162;2022-09-24T05:41:00;102985.41;;;13.72;100.00
8569;BME280;4322;51.104;-4.162;2022-09-24T05:43:29;102993.25;;;13.74;100.00
8569;BME280;4322;51.104;-4.162;2022-09-24T05:45:57;103004.59;;;13.75;100.00
8569;BME280;4322;51.104;-4.162;2022-09-24T05:48:25;102997.63;;;13.73;100.00
8569;BME280;4322;51.104;-4.162;2022-09-24T05:50:53;102993.25;;;13.72;100.00
8569;BME280;4322;51.104;-4.162;2022-09-24T05:53:23;102993.31;;;13.71;100.00
8569;BME280;4322;51.104;-4.162;2022-09-24T05:55:51;102985.47;;;13.71;100.00
8569;BME280;4322;51.104;-4.162;2022-09-24T05:58:19;102991.59;;;13.70;100.00
8569;BME280;4322;51.104;-4.162;2022-09-24T06:00:47;102992.44;;;13.72;100.00
8569;BME280;4322;51.104;-4.162;2022-09-24T06:03:17;102989.81;;;13.72;100.00
8569;BME280;4322;51.104;-4.162;2022-09-24T06:05:46;102987.22;;;13.70;100.00
8569;BME280;4322;51.104;-4.162;2022-09-24T06:08:15;102983.78;;;13.68;100.00
8569;BME280;4322;51.104;-4.162;2022-09-24T06:10:45;102983.00;;;13.65;100.00
8569;BME280;4322;51.104;-4.162;2022-09-24T06:13:17;102977.81;;;13.62;100.00
8569;BME280;4322;51.104;-4.162;2022-09-24T06:15:46;102986.63;;;13.61;100.00
8569;BME280;4322;51.104;-4.162;2022-09-24T06:18:14;102985.88;;;13.56;100.00
8569;BME280;4322;51.104;-4.162;2022-09-24T06:20:42;102988.56;;;13.53;100.00
8569;BME280;4322;51.104;-4.162;2022-09-24T06:23:11;103000.00;;;13.49;100.00
8569;BME280;4322;51.104;-4.162;2022-09-24T06:25:39;102999.19;;;13.47;100.00
8569;BME280;4322;51.104;-4.162;2022-09-24T06:28:09;102994.84;;;13.46;100.00
8569;BME280;4322;51.104;-4.162;2022-09-24T06:30:37;103004.44;;;13.47;100.00
8569;BME280;4322;51.104;-4.162;2022-09-24T06:33:08;103013.19;;;13.46;100.00
8569;BME280;4322;51.104;-4.162;2022-09-24T06:35:37;103005.25;;;13.49;100.00
8569;BME280;4322;51.104;-4.162;2022-09-24T06:38:07;103010.47;;;13.50;100.00
8569;BME280;4322;51.104;-4.162;2022-09-24T06:40:37;103013.91;;;13.52;100.00
8569;BME280;4322;51.104;-4.162;2022-09-24T06:43:06;103020.81;;;13.55;100.00
8569;BME280;4322;51.104;-4.162;2022-09-24T06:45:35;103024.25;;;13.58;100.00
8569;BME280;4322;51.104;-4.162;2022-09-24T06:48:05;103031.09;;;13.62;100.00
8569;BME280;4322;51.104;-4.162;2022-09-24T06:50:33;103025.78;;;13.65;100.00
8569;BME280;4322;51.104;-4.162;2022-09-24T06:53:04;103027.44;;;13.69;100.00
8569;BME280;4322;51.104;-4.162;2022-09-24T06:55:32;103030.88;;;13.71;100.00
8569;BME280;4322;51.104;-4.162;2022-09-24T06:58:01;103035.19;;;13.72;100.00
8569;BME280;4322;51.104;-4.162;2022-09-24T07:00:30;103036.97;;;13.72;100.00
8569;BME280;4322;51.104;-4.162;2022-09-24T07:02:59;103031.75;;;13.72;100.00
8569;BME280;4322;51.104;-4.162;2022-09-24T07:05:27;103037.00;;;13.70;100.00
8569;BME280;4322;51.104;-4.162;2022-09-24T07:07:55;103038.75;;;13.70;100.00
8569;BME280;4322;51.104;-4.162;2022-09-24T07:10:23;103038.75;;;13.70;100.00
8569;BME280;4322;51.104;-4.162;2022-09-24T07:12:53;103029.22;;;13.67;100.00
8569;BME280;4322;51.104;-4.162;2022-09-24T07:15:21;103042.31;;;13.69;100.00
8569;BME280;4322;51.104;-4.162;2022-09-24T07:17:54;103039.69;;;13.67;100.00
8569;BME280;4322;51.104;-4.162;2022-09-24T07:20:23;103035.31;;;13.68;100.00
8569;BME280;4322;51.104;-4.162;2022-09-24T07:22:53;103026.59;;;13.67;100.00
8569;BME280;4322;51.104;-4.162;2022-09-24T07:25:22;103039.69;;;13.69;100.00
8569;BME280;4322;51.104;-4.162;2022-09-24T07:27:50;103035.31;;;13.68;100.00
8569;BME280;4322;51.104;-4.162;2022-09-24T07:30:18;103022.28;;;13.66;100.00
8569;BME280;4322;51.104;-4.162;2022-09-24T07:32:47;103034.50;;;13.66;100.00
8569;BME280;4322;51.104;-4.162;2022-09-24T07:35:16;103031.91;;;13.66;100.00
8569;BME280;4322;51.104;-4.162;2022-09-24T07:37:47;103021.44;;;13.64;100.00
8569;BME280;4322;51.104;-4.162;2022-09-24T07:40:15;103023.22;;;13.64;100.00
8569;BME280;4322;51.104;-4.162;2022-09-24T07:42:47;103024.06;;;13.64;100.00
8569;BME280;4322;51.104;-4.162;2022-09-24T07:45:15;103029.28;;;13.64;100.00
8569;BME280;4322;51.104;-4.162;2022-09-24T07:47:43;103030.16;;;13.65;100.00
8569;BME280;4322;51.104;-4.162;2022-09-24T07:50:11;103021.41;;;13.66;100.00
8569;BME280;4322;51.104;-4.162;2022-09-24T07:52:39;103024.91;;;13.66;100.00
8569;BME280;4322;51.104;-4.162;2022-09-24T07:55:09;103025.72;;;13.67;100.00
8569;BME280;4322;51.104;-4.162;2022-09-24T07:57:37;103028.41;;;13.65;100.00
8569;BME280;4322;51.104;-4.162;2022-09-24T08:00:07;103030.16;;;13.65;100.00
8569;BME280;4322;51.104;-4.162;2022-09-24T08:02:36;103029.28;;;13.64;100.00
8569;BME280;4322;51.104;-4.162;2022-09-24T08:05:04;103032.78;;;13.65;100.00
8569;BME280;4322;51.104;-4.162;2022-09-24T08:07:32;103031.91;;;13.64;100.00
8569;BME280;4322;51.104;-4.162;2022-09-24T08:10:00;103029.28;;;13.64;100.00
8569;BME280;4322;51.104;-4.162;2022-09-24T08:12:30;103030.16;;;13.65;100.00
8569;BME280;4322;51.104;-4.162;2022-09-24T08:14:58;103033.66;;;13.65;100.00
8569;BME280;4322;51.104;-4.162;2022-09-24T08:17:26;103035.31;;;13.68;100.00
8569;BME280;4322;51.104;-4.162;2022-09-24T08:19:54;103031.75;;;13.72;100.00
8569;BME280;4322;51.104;-4.162;2022-09-24T08:22:22;103029.88;;;13.77;100.00
8569;BME280;4322;51.104;-4.162;2022-09-24T08:24:52;103021.88;;;13.82;100.00
8569;BME280;4322;51.104;-4.162;2022-09-24T08:27:20;103030.47;;;13.87;100.00
8569;BME280;4322;51.104;-4.162;2022-09-24T08:29:51;103019.88;;;13.91;100.00
8569;BME280;4322;51.104;-4.162;2022-09-24T08:32:18;103014.50;;;13.96;100.00
8569;BME280;4322;51.104;-4.162;2022-09-24T08:34:46;103003.06;;;13.98;100.00
8569;BME280;4322;51.104;-4.162;2022-09-24T08:37:14;103002.97;;;14.01;100.00
8569;BME280;4322;51.104;-4.162;2022-09-24T08:39:42;102990.69;;;14.03;100.00
8569;BME280;4322;51.104;-4.162;2022-09-24T08:42:12;102990.59;;;14.06;100.00
8569;BME280;4322;51.104;-4.162;2022-09-24T08:44:44;102976.59;;;14.07;100.00
8569;BME280;4322;51.104;-4.162;2022-09-24T08:47:36;102969.53;;;14.09;100.00
8569;BME280;4322;51.104;-4.162;2022-09-24T08:50:12;102968.59;;;14.12;100.00
8569;BME280;4322;51.104;-4.162;2022-09-24T08:52:53;102955.41;;;14.13;100.00
8569;BME280;4322;51.104;-4.162;2022-09-24T08:55:27;102937.91;;;14.15;100.00
8569;BME280;4322;51.104;-4.162;2022-09-24T09:00:51;102929.81;;;14.23;100.00
8569;BME280;4322;51.104;-4.162;2022-09-24T09:03:29;102920.09;;;14.26;100.00
8569;BME280;4322;51.104;-4.162;2022-09-24T09:06:03;102903.34;;;14.30;100.00
8569;BME280;4322;51.104;-4.162;2022-09-24T09:08:42;102884.06;;;14.33;100.00
8569;BME280;4322;51.104;-4.162;2022-09-24T09:11:34;102873.53;;;14.35;100.00
8569;BME280;4322;51.104;-4.162;2022-09-24T09:14:07;102857.72;;;14.36;100.00
8569;BME280;4322;51.104;-4.162;2022-09-24T09:16:43;102851.53;;;14.39;100.00
8569;BME280;4322;51.104;-4.162;2022-09-24T09:19:15;102834.09;;;14.38;100.00
8569;BME280;4322;51.104;-4.162;2022-09-24T09:21:47;102815.59;;;14.41;100.00
8569;BME280;4322;51.104;-4.162;2022-09-24T09:24:20;102808.56;;;14.43;100.00
8569;BME280;4322;51.104;-4.162;2022-09-24T09:26:51;102796.28;;;14.43;100.00
8569;BME280;4322;51.104;-4.162;2022-09-24T09:29:22;102796.25;;;14.45;100.00
8569;BME280;4322;51.104;-4.162;2022-09-24T09:32:01;102785.75;;;14.45;100.00
8569;BME280;4322;51.104;-4.162;2022-09-24T09:34:43;102785.66;;;14.48;100.00
8569;BME280;4322;51.104;-4.162;2022-09-24T09:37:22;102775.06;;;14.51;100.00
8569;BME280;4322;51.104;-4.162;2022-09-24T09:39:58;102777.25;;;14.63;100.00
8569;BME280;4322;51.104;-4.162;2022-09-24T09:42:29;102770.63;;;14.77;100.00
8569;BME280;4322;51.104;-4.162;2022-09-24T09:44:59;102758.72;;;14.92;100.00
8569;BME280;4322;51.104;-4.162;2022-09-24T09:47:36;102739.22;;;14.99;100.00
8569;BME280;4322;51.104;-4.162;2022-09-24T09:50:17;102739.81;;;15.07;100.00
8569;BME280;4322;51.104;-4.162;2022-09-24T09:52:46;102731.72;;;15.13;100.00
8569;BME280;4322;51.104;-4.162;2022-09-24T09:55:22;102738.56;;;15.17;100.00
8569;BME280;4322;51.104;-4.162;2022-09-24T09:57:51;102721.94;;;15.17;100.00
8569;BME280;4322;51.104;-4.162;2022-09-24T10:00:25;102712.19;;;15.20;100.00
8569;BME280;4322;51.104;-4.162;2022-09-24T10:02:53;102711.16;;;15.24;100.00
8569;BME280;4322;51.104;-4.162;2022-09-24T10:05:23;102704.88;;;15.28;100.00
8569;BME280;4322;51.104;-4.162;2022-09-24T10:07:54;102698.59;;;15.32;100.00
8569;BME280;4322;51.104;-4.162;2022-09-24T10:10:25;102701.03;;;15.37;100.00
8569;BME280;4322;51.104;-4.162;2022-09-24T10:13:05;102699.16;;;15.40;100.00
8569;BME280;4322;51.104;-4.162;2022-09-24T10:15:39;102693.69;;;15.46;100.00
8569;BME280;4322;51.104;-4.162;2022-09-24T10:18:16;102686.50;;;15.52;100.00
8569;BME280;4322;51.104;-4.162;2022-09-24T10:20:46;102685.44;;;15.56;100.00
8569;BME280;4322;51.104;-4.162;2022-09-24T10:23:19;102678.91;;;15.66;100.00
8569;BME280;4322;51.104;-4.162;2022-09-24T10:25:49;102677.63;;;15.76;100.00
8569;BME280;4322;51.104;-4.162;2022-09-24T10:28:19;102666.69;;;15.86;100.00
8569;BME280;4322;51.104;-4.162;2022-09-24T10:31:10;102649.69;;;15.95;100.00
8569;BME280;4322;51.104;-4.162;2022-09-24T10:33:39;102637.06;;;16.03;100.00
8569;BME280;4322;51.104;-4.162;2022-09-24T10:36:15;102631.69;;;16.06;100.00
8569;BME280;4322;51.104;-4.162;2022-09-24T10:38:43;102626.25;;;16.09;100.00
8569;BME280;4322;51.104;-4.162;2022-09-24T10:41:15;102618.25;;;16.12;100.00
8569;BME280;4322;51.104;-4.162;2022-09-24T10:43:50;102602.97;;;16.20;100.00
8569;BME280;4322;51.104;-4.162;2022-09-24T10:46:42;102609.56;;;16.30;100.00
8569;BME280;4322;51.104;-4.162;2022-09-24T10:49:26;102605.00;;;16.34;100.00
8569;BME280;4322;51.104;-4.162;2022-09-24T10:52:03;102594.31;;;16.38;100.00
8569;BME280;4322;51.104;-4.162;2022-09-24T10:54:45;102589.56;;;16.46;100.00
8569;BME280;4322;51.104;-4.162;2022-09-24T10:57:23;102573.63;;;16.49;100.00
8569;BME280;4322;51.104;-4.162;2022-09-24T11:00:02;102571.78;;;16.51;100.00
8569;BME280;4322;51.104;-4.162;2022-09-24T11:02:46;102552.31;;;16.55;100.00
8569;BME280;4322;51.104;-4.162;2022-09-24T11:05:20;102556.38;;;16.62;100.00
8569;BME280;4322;51.104;-4.162;2022-09-24T11:07:59;102543.91;;;16.66;100.00
8569;BME280;4322;51.104;-4.162;2022-09-24T11:13:48;102522.78;;;16.67;100.00
8569;BME280;4322;51.104;-4.162;2022-09-24T11:16:47;102519.38;;;16.65;100.00
8569;BME280;4322;51.104;-4.162;2022-09-24T11:19:42;102496.59;;;16.64;100.00
8569;BME280;4322;51.104;-4.162;2022-09-24T11:22:21;102501.72;;;16.67;100.00
8569;BME280;4322;51.104;-4.162;2022-09-24T11:25:12;102492.31;;;16.81;100.00
8569;BME280;4322;51.104;-4.162;2022-09-24T11:27:50;102488.31;;;16.91;100.00
8569;BME280;4322;51.104;-4.162;2022-09-24T11:30:28;102480.06;;;16.98;100.00
8569;BME280;4322;51.104;-4.162;2022-09-24T11:33:21;102462.00;;;17.08;100.00
8569;BME280;4322;51.104;-4.162;2022-09-24T11:36:03;102464.22;;;17.17;100.00
8569;BME280;4322;51.104;-4.162;2022-09-24T11:38:48;102452.56;;;17.21;100.00
8569;BME280;4322;51.104;-4.162;2022-09-24T11:41:31;102444.53;;;17.41;100.00
8569;BME280;4322;51.104;-4.162;2022-09-24T11:44:38;102432.28;;;17.74;100.00
8569;BME280;4322;51.104;-4.162;2022-09-24T11:47:18;102423.66;;;18.04;100.00
8569;BME280;4322;51.104;-4.162;2022-09-24T11:50:04;102412.78;;;18.25;100.00
8569;BME280;4322;51.104;-4.162;2022-09-24T11:52:41;102402.06;;;18.44;100.00
8569;BME280;4322;51.104;-4.162;2022-09-24T11:55:14;102387.09;;;18.60;100.00
8569;BME280;4322;51.104;-4.162;2022-09-24T11:57:50;102370.72;;;18.69;100.00
8569;BME280;4322;51.104;-4.162;2022-09-24T12:00:20;102361.84;;;18.86;100.00
8569;BME280;4322;51.104;-4.162;2022-09-24T12:02:50;102362.13;;;18.95;100.00
8569;BME280;4322;51.104;-4.162;2022-09-24T12:05:28;102367.34;;;19.11;100.00
8569;BME280;4322;51.104;-4.162;2022-09-24T12:08:03;102352.66;;;19.21;100.00
8569;BME280;4322;51.104;-4.162;2022-09-24T12:10:38;102351.34;;;19.28;100.00
8569;BME280;4322;51.104;-4.162;2022-09-24T12:13:15;102352.03;;;19.46;100.00
8569;BME280;4322;51.104;-4.162;2022-09-24T12:15:48;102353.38;;;19.53;100.00
8569;BME280;4322;51.104;-4.162;2022-09-24T12:18:22;102350.25;;;19.60;100.00
8569;BME280;4322;51.104;-4.162;2022-09-24T12:20:55;102348.47;;;19.75;100.00
8569;BME280;4322;51.104;-4.162;2022-09-24T12:23:29;102336.06;;;19.90;100.00
8569;BME280;4322;51.104;-4.162;2022-09-24T12:26:02;102340.41;;;20.05;100.00
8569;BME280;4322;51.104;-4.162;2022-09-24T12:28:37;102333.00;;;20.10;100.00
8569;BME280;4322;51.104;-4.162;2022-09-24T12:31:29;102325.91;;;20.25;100.00
8569;BME280;4322;51.104;-4.162;2022-09-24T12:34:38;102314.84;;;20.45;100.00
8569;BME280;4322;51.104;-4.162;2022-09-24T12:37:13;102305.56;;;20.52;100.00
8569;BME280;4322;51.104;-4.162;2022-09-24T12:39:47;102311.75;;;20.65;100.00
8569;BME280;4322;51.104;-4.162;2022-09-24T12:42:21;102302.75;;;20.80;100.00
8569;BME280;4322;51.104;-4.162;2022-09-24T12:44:54;102298.75;;;20.87;100.00
8569;BME280;4322;51.104;-4.162;2022-09-24T12:47:29;102300.16;;;21.05;100.00
8569;BME280;4322;51.104;-4.162;2022-09-24T12:50:00;102293.50;;;21.12;100.00
8569;BME280;4322;51.104;-4.162;2022-09-24T12:52:32;102287.97;;;21.28;100.00
8569;BME280;4322;51.104;-4.162;2022-09-24T12:55:03;102292.84;;;21.34;100.00
8569;BME280;4322;51.104;-4.162;2022-09-24T12:57:34;102285.31;;;21.41;100.00
8569;BME280;4322;51.104;-4.162;2022-09-24T13:00:35;102281.25;;;21.48;100.00
8569;BME280;4322;51.104;-4.162;2022-09-24T13:03:04;102280.00;;;21.28;100.00
8569;BME280;4322;51.104;-4.162;2022-09-24T13:05:45;102282.16;;;20.71;100.00
8569;BME280;4322;51.104;-4.162;2022-09-24T13:08:23;102286.31;;;20.36;100.00
8569;BME280;4322;51.104;-4.162;2022-09-24T13:10:54;102289.59;;;20.66;100.00
8569;BME280;4322;51.104;-4.162;2022-09-24T13:13:24;102279.16;;;20.90;100.00
8569;BME280;4322;51.104;-4.162;2022-09-24T13:16:01;102280.91;;;20.76;100.00
8569;BME280;4322;51.104;-4.162;2022-09-24T13:18:31;102284.81;;;20.58;100.00
8569;BME280;4322;51.104;-4.162;2022-09-24T13:21:03;102284.63;;;20.74;100.00
8569;BME280;4322;51.104;-4.162;2022-09-24T13:23:43;102283.34;;;20.79;100.00